createdAt,value
2023-04-22T00:00:48.163Z,13.06
2023-04-22T00:03:23.699Z,13.01
2023-04-22T00:05:56.726Z,12.95
2023-04-22T00:08:29.136Z,12.89
2023-04-22T00:11:01.801Z,12.84
2023-04-22T00:13:33.980Z,12.78
2023-04-22T00:16:06.890Z,12.73
2023-04-22T00:18:39.782Z,12.69
2023-04-22T00:21:12.179Z,12.65
2023-04-22T00:23:45.374Z,12.61
2023-04-22T00:26:17.675Z,12.57
2023-04-22T00:28:50.274Z,12.57
2023-04-22T00:31:22.869Z,12.57
2023-04-22T00:33:55.302Z,12.47
2023-04-22T00:36:28.867Z,12.56
2023-04-22T00:39:01.210Z,12.40
2023-04-22T00:41:34.016Z,12.45
2023-04-22T00:44:06.864Z,12.61
2023-04-22T00:46:40.378Z,12.60
2023-04-22T00:49:13.992Z,12.61
2023-04-22T00:51:46.294Z,12.60
2023-04-22T00:54:18.478Z,12.60
2023-04-22T00:56:50.728Z,12.60
2023-04-22T00:59:25.333Z,12.59
2023-04-22T01:01:59.333Z,12.59
2023-04-22T01:04:31.993Z,12.60
2023-04-22T01:07:04.603Z,12.60
2023-04-22T01:09:38.652Z,12.60
2023-04-22T01:12:11.376Z,12.62
2023-04-22T01:14:44.429Z,12.60
2023-04-22T01:17:19.421Z,12.58
2023-04-22T01:19:53.314Z,12.57
2023-04-22T01:22:27.351Z,12.57
2023-04-22T01:24:59.403Z,12.56
2023-04-22T01:27:32.023Z,12.57
2023-04-22T01:30:04.417Z,12.58
2023-04-22T01:32:37.426Z,12.58
2023-04-22T01:35:10.984Z,12.59
2023-04-22T01:37:43.354Z,12.60
2023-04-22T01:40:19.860Z,12.58
2023-04-22T01:42:52.836Z,12.58
2023-04-22T01:45:25.836Z,12.54
2023-04-22T01:47:59.352Z,12.51
2023-04-22T01:50:32.063Z,12.46
2023-04-22T01:53:04.470Z,12.46
2023-04-22T01:55:37.413Z,12.44
2023-04-22T01:58:09.574Z,12.43
2023-04-22T02:00:42.371Z,12.41
2023-04-22T02:03:14.736Z,12.40
2023-04-22T02:05:46.853Z,12.39
2023-04-22T02:08:19.312Z,12.38
2023-04-22T02:10:51.757Z,12.35
2023-04-22T02:13:24.167Z,12.32
2023-04-22T02:15:56.710Z,12.29
2023-04-22T02:18:29.287Z,12.25
2023-04-22T02:21:02.135Z,12.22
2023-04-22T02:23:34.632Z,12.19
2023-04-22T02:26:07.269Z,12.16
2023-04-22T02:28:40.104Z,12.12
2023-04-22T02:31:14.831Z,12.01
2023-04-22T02:33:45.433Z,12.07
2023-04-22T02:36:17.773Z,12.04
2023-04-22T02:38:51.916Z,12.01
2023-04-22T02:41:24.414Z,11.97
2023-04-22T02:43:57.062Z,11.92
2023-04-22T02:46:29.932Z,11.89
2023-04-22T02:49:02.885Z,11.83
2023-04-22T02:51:35.748Z,11.71
2023-04-22T02:54:08.360Z,11.74
2023-04-22T02:56:40.680Z,11.70
2023-04-22T02:59:12.939Z,11.69
2023-04-22T03:01:45.619Z,11.66
2023-04-22T03:04:25.768Z,11.62
2023-04-22T03:06:58.666Z,11.57
2023-04-22T03:09:31.594Z,11.52
2023-04-22T03:12:04.060Z,11.54
2023-04-22T03:14:36.496Z,11.46
2023-04-22T03:17:08.842Z,11.58
2023-04-22T03:19:41.929Z,11.58
2023-04-22T03:22:16.118Z,11.57
2023-04-22T03:24:49.057Z,11.56
2023-04-22T03:27:21.696Z,11.53
2023-04-22T03:29:54.294Z,11.51
2023-04-22T03:32:29.649Z,11.54
2023-04-22T03:35:24.104Z,11.55
2023-04-22T03:37:57.326Z,11.53
2023-04-22T03:40:34.354Z,11.52
2023-04-22T03:43:09.311Z,11.49
2023-04-22T03:45:42.114Z,11.46
2023-04-22T03:48:22.172Z,11.44
2023-04-22T03:50:56.540Z,11.41
2023-04-22T03:53:30.058Z,11.37
2023-04-22T03:56:02.199Z,11.34
2023-04-22T03:58:35.278Z,11.31
2023-04-22T04:01:11.360Z,11.30
2023-04-22T04:03:47.652Z,11.22
2023-04-22T04:06:20.525Z,11.29
2023-04-22T04:08:53.055Z,11.29
2023-04-22T04:11:25.618Z,11.29
2023-04-22T04:13:58.984Z,11.30
2023-04-22T04:16:43.096Z,11.29
2023-04-22T04:19:19.428Z,11.11
2023-04-22T04:21:53.377Z,11.28
2023-04-22T04:24:26.659Z,11.29
2023-04-22T04:27:03.261Z,11.29
2023-04-22T04:29:42.656Z,11.31
2023-04-22T04:32:21.904Z,11.30
2023-04-22T04:34:54.721Z,11.32
2023-04-22T04:37:28.390Z,11.33
2023-04-22T04:40:05.011Z,11.36
2023-04-22T04:42:46.920Z,11.40
2023-04-22T04:45:24.668Z,11.42
2023-04-22T04:48:00.737Z,11.45
2023-04-22T04:50:36.518Z,11.42
2023-04-22T04:53:09.402Z,11.50
2023-04-22T04:55:44.742Z,11.53
2023-04-22T04:58:23.254Z,11.57
2023-04-22T05:01:04.063Z,11.61
2023-04-22T05:03:36.426Z,11.65
2023-04-22T05:06:10.776Z,11.69
2023-04-22T05:08:42.226Z,11.70
2023-04-22T05:11:15.106Z,11.78
2023-04-22T05:13:48.294Z,11.84
2023-04-22T05:16:25.493Z,11.84
2023-04-22T05:18:58.292Z,11.85
2023-04-22T05:21:31.616Z,11.88
2023-04-22T05:24:04.397Z,11.92
2023-04-22T05:26:37.396Z,11.99
2023-04-22T05:29:14.593Z,12.06
2023-04-22T05:31:47.268Z,12.11
2023-04-22T05:34:19.779Z,12.14
2023-04-22T05:36:52.202Z,12.19
2023-04-22T05:39:24.634Z,12.23
2023-04-22T05:41:57.715Z,12.30
2023-04-22T05:44:30.429Z,12.34
2023-04-22T05:47:03.274Z,12.39
2023-04-22T05:49:35.687Z,12.46
2023-04-22T05:52:10.436Z,12.50
2023-04-22T05:54:53.743Z,12.56
2023-04-22T05:57:26.798Z,12.63
2023-04-22T06:00:00.344Z,12.66
2023-04-22T06:02:32.972Z,12.70
2023-04-22T06:05:06.205Z,12.76
2023-04-22T06:07:38.871Z,12.81
2023-04-22T06:10:12.717Z,12.93
2023-04-22T06:12:45.004Z,12.97
2023-04-22T06:15:17.459Z,13.02
2023-04-22T06:17:51.015Z,13.07
2023-04-22T06:20:23.618Z,13.12
2023-04-22T06:22:56.419Z,13.17
2023-04-22T06:25:28.793Z,13.28
2023-04-22T06:28:01.947Z,13.36
2023-04-22T06:30:34.250Z,13.41
2023-04-22T06:33:06.785Z,13.49
2023-04-22T06:35:40.561Z,13.62
2023-04-22T06:38:12.976Z,13.66
2023-04-22T06:40:51.585Z,13.74
2023-04-22T06:43:29.898Z,13.80
2023-04-22T06:46:25.541Z,13.91
2023-04-22T06:48:57.743Z,13.98
2023-04-22T06:51:36.132Z,13.98
2023-04-22T06:54:08.657Z,14.15
2023-04-22T06:56:41.303Z,14.23
2023-04-22T06:59:14.027Z,14.28
2023-04-22T07:01:46.960Z,14.30
2023-04-22T07:04:19.538Z,14.40
2023-04-22T07:06:52.183Z,14.44
2023-04-22T07:09:24.674Z,14.62
2023-04-22T07:11:58.958Z,14.73
2023-04-22T07:14:34.780Z,14.79
2023-04-22T07:17:06.906Z,14.88
2023-04-22T07:19:39.884Z,14.99
2023-04-22T07:22:12.696Z,15.06
2023-04-22T07:24:44.952Z,15.12
2023-04-22T07:27:17.524Z,15.21
2023-04-22T07:29:50.280Z,15.29
2023-04-22T07:32:22.835Z,15.39
2023-04-22T07:34:55.219Z,15.51
2023-04-22T07:37:27.503Z,15.61
2023-04-22T07:39:59.884Z,15.66
2023-04-22T07:42:32.385Z,15.73
2023-04-22T07:45:04.800Z,15.82
2023-04-22T07:47:37.197Z,15.91
2023-04-22T07:50:11.344Z,15.98
2023-04-22T07:52:43.574Z,16.08
2023-04-22T07:55:15.787Z,16.19
2023-04-22T07:57:48.208Z,16.26
2023-04-22T08:00:20.970Z,16.39
2023-04-22T08:02:53.178Z,16.47
2023-04-22T08:05:25.796Z,16.56
2023-04-22T08:07:58.537Z,16.70
2023-04-22T08:10:31.314Z,16.79
2023-04-22T08:13:04.079Z,16.88
2023-04-22T08:15:36.627Z,16.94
2023-04-22T08:18:08.988Z,16.96
2023-04-22T08:20:41.096Z,17.14
2023-04-22T08:23:13.711Z,17.21
2023-04-22T08:25:46.315Z,17.33
2023-04-22T08:28:19.026Z,17.39
2023-04-22T08:30:51.793Z,17.49
2023-04-22T08:33:27.432Z,17.56
2023-04-22T08:35:59.783Z,17.63
2023-04-22T08:38:32.659Z,17.71
2023-04-22T08:41:06.064Z,17.79
2023-04-22T08:43:38.705Z,17.86
2023-04-22T08:46:11.596Z,17.95
2023-04-22T08:48:44.174Z,17.93
2023-04-22T08:51:17.723Z,18.03
2023-04-22T08:53:50.084Z,18.19
2023-04-22T08:56:22.905Z,18.27
2023-04-22T08:58:55.951Z,18.28
2023-04-22T09:01:32.085Z,18.38
2023-04-22T09:04:04.661Z,18.45
2023-04-22T09:06:37.080Z,18.58
2023-04-22T09:09:10.107Z,18.66
2023-04-22T09:11:42.712Z,18.70
2023-04-22T09:14:15.058Z,18.84
2023-04-22T09:16:51.554Z,18.93
2023-04-22T09:19:26.818Z,18.99
2023-04-22T09:22:01.976Z,19.15
2023-04-22T09:24:35.857Z,19.19
2023-04-22T09:27:08.416Z,19.18
2023-04-22T09:29:40.843Z,19.33
2023-04-22T09:32:14.151Z,19.47
2023-04-22T09:34:53.020Z,19.53
2023-04-22T09:37:39.018Z,19.63
2023-04-22T09:40:21.398Z,19.76
2023-04-22T09:42:52.721Z,19.79
2023-04-22T09:45:32.891Z,19.95
2023-04-22T09:48:08.544Z,19.98
2023-04-22T09:50:42.187Z,20.01
2023-04-22T09:53:16.192Z,19.96
2023-04-22T09:55:50.808Z,20.07
2023-04-22T09:58:25.993Z,20.28
2023-04-22T10:01:00.218Z,20.29
2023-04-22T10:03:33.090Z,20.33
2023-04-22T10:06:07.201Z,20.43
2023-04-22T10:08:40.159Z,20.42
2023-04-22T10:11:13.134Z,20.48
2023-04-22T10:13:45.402Z,20.61
2023-04-22T10:16:20.203Z,20.58
2023-04-22T10:18:56.659Z,20.72
2023-04-22T10:21:31.206Z,20.84
2023-04-22T10:24:03.438Z,20.96
2023-04-22T10:26:50.086Z,21.06
2023-04-22T10:29:24.208Z,21.16
2023-04-22T10:32:06.069Z,21.22
2023-04-22T10:34:40.255Z,21.33
2023-04-22T10:37:13.632Z,21.42
2023-04-22T10:40:06.715Z,21.48
2023-04-22T10:42:41.738Z,21.55
2023-04-22T10:45:16.839Z,21.62
2023-04-22T10:47:48.931Z,21.69
2023-04-22T10:50:26.137Z,21.64
2023-04-22T10:53:03.238Z,21.82
2023-04-22T10:55:53.184Z,21.94
2023-04-22T10:58:26.851Z,22.04
2023-04-22T11:01:03.222Z,22.10
2023-04-22T11:03:36.146Z,22.13
2023-04-22T11:06:20.101Z,22.29
2023-04-22T11:09:08.994Z,22.38
2023-04-22T11:11:41.311Z,22.43
2023-04-22T11:14:13.911Z,22.54
2023-04-22T11:16:52.747Z,22.60
2023-04-22T11:19:25.045Z,22.74
2023-04-22T11:21:58.831Z,22.78
2023-04-22T11:24:31.125Z,22.75
2023-04-22T11:27:03.319Z,22.84
2023-04-22T11:29:35.755Z,22.83
2023-04-22T11:32:08.109Z,22.90
2023-04-22T11:34:40.574Z,23.01
2023-04-22T11:37:13.432Z,23.11
2023-04-22T11:40:07.782Z,23.16
2023-04-22T11:42:37.892Z,23.20
2023-04-22T11:45:11.973Z,23.16
2023-04-22T11:47:46.123Z,23.13
2023-04-22T11:50:19.821Z,23.19
2023-04-22T11:52:54.395Z,23.22
2023-04-22T11:55:30.519Z,23.34
2023-04-22T11:58:07.242Z,23.33
2023-04-22T12:00:42.004Z,23.32
2023-04-22T12:03:18.811Z,23.41
2023-04-22T12:05:55.931Z,23.42
2023-04-22T12:08:32.252Z,23.14
2023-04-22T12:11:06.123Z,23.23
2023-04-22T12:13:45.638Z,23.16
2023-04-22T12:16:20.408Z,23.10
2023-04-22T12:18:51.958Z,23.25
2023-04-22T12:21:25.335Z,23.36
2023-04-22T12:24:00.162Z,23.45
2023-04-22T12:26:32.722Z,23.44
2023-04-22T12:29:05.163Z,23.55
2023-04-22T12:31:38.706Z,23.52
2023-04-22T12:34:10.963Z,23.49
2023-04-22T12:36:43.508Z,23.46
2023-04-22T12:39:16.555Z,23.53
2023-04-22T12:41:51.155Z,23.64
2023-04-22T12:44:25.180Z,23.67
2023-04-22T12:46:57.498Z,23.64
2023-04-22T12:49:29.673Z,23.74
2023-04-22T12:52:01.772Z,23.83
2023-04-22T12:54:34.177Z,23.88
2023-04-22T12:57:06.659Z,23.93
2023-04-22T12:59:39.373Z,24.00
2023-04-22T13:02:11.974Z,24.08
2023-04-22T13:04:45.769Z,24.00
2023-04-22T13:07:18.647Z,24.07
2023-04-22T13:09:51.559Z,24.14
2023-04-22T13:12:23.632Z,24.09
2023-04-22T13:14:55.954Z,24.08
2023-04-22T13:17:28.445Z,23.92
2023-04-22T13:20:00.920Z,24.08
2023-04-22T13:22:33.018Z,24.08
2023-04-22T13:25:06.544Z,24.08
2023-04-22T13:27:38.737Z,24.06
2023-04-22T13:30:12.805Z,24.07
2023-04-22T13:32:44.987Z,24.13
2023-04-22T13:35:18.460Z,24.13
2023-04-22T13:37:51.314Z,24.14
2023-04-22T13:40:23.809Z,24.13
2023-04-22T13:42:56.450Z,24.19
2023-04-22T13:45:28.802Z,24.13
2023-04-22T13:48:01.422Z,24.10
2023-04-22T13:50:34.208Z,24.04
2023-04-22T13:53:09.958Z,24.07
2023-04-22T13:55:43.432Z,24.16
2023-04-22T13:58:15.932Z,24.06
2023-04-22T14:00:48.472Z,24.05
2023-04-22T14:03:20.939Z,24.03
2023-04-22T14:05:53.970Z,24.08
2023-04-22T14:08:26.413Z,24.05
2023-04-22T14:10:59.645Z,24.07
2023-04-22T14:13:32.279Z,24.05
2023-04-22T14:16:09.754Z,23.93
2023-04-22T14:18:42.963Z,23.96
2023-04-22T14:21:15.767Z,23.94
2023-04-22T14:23:48.089Z,23.90
2023-04-22T14:26:21.031Z,23.89
2023-04-22T14:28:53.138Z,23.91
2023-04-22T14:31:25.475Z,23.93
2023-04-22T14:33:57.605Z,23.92
2023-04-22T14:36:30.214Z,23.90
2023-04-22T14:39:02.581Z,23.80
2023-04-22T14:41:35.752Z,23.81
2023-04-22T14:44:08.057Z,23.81
2023-04-22T14:46:40.421Z,23.79
2023-04-22T14:49:12.476Z,23.76
2023-04-22T14:51:45.418Z,23.72
2023-04-22T14:54:17.664Z,23.69
2023-04-22T14:56:52.289Z,23.66
2023-04-22T14:59:23.433Z,23.61
2023-04-22T15:01:55.944Z,23.56
2023-04-22T15:04:28.248Z,23.61
2023-04-22T15:07:01.776Z,23.58
2023-04-22T15:09:34.127Z,23.43
2023-04-22T15:12:06.841Z,23.34
2023-04-22T15:14:39.448Z,23.21
2023-04-22T15:17:13.170Z,23.11
2023-04-22T15:19:45.712Z,22.99
2023-04-22T15:22:18.512Z,22.83
2023-04-22T15:24:50.799Z,22.74
2023-04-22T15:27:23.238Z,22.73
2023-04-22T15:29:55.617Z,22.73
2023-04-22T15:32:28.036Z,22.67
2023-04-22T15:35:00.214Z,22.63
2023-04-22T15:37:32.542Z,22.57
2023-04-22T15:40:06.897Z,22.51
2023-04-22T15:42:38.085Z,22.42
2023-04-22T15:45:11.865Z,22.35
2023-04-22T15:47:44.311Z,22.40
2023-04-22T15:50:17.111Z,22.42
2023-04-22T15:52:49.222Z,22.34
2023-04-22T15:55:21.625Z,22.28
2023-04-22T15:57:53.785Z,22.30
2023-04-22T16:00:26.472Z,22.30
2023-04-22T16:02:59.412Z,22.23
2023-04-22T16:05:31.570Z,22.29
2023-04-22T16:08:03.718Z,22.29
2023-04-22T16:10:36.318Z,22.31
2023-04-22T16:13:09.046Z,22.30
2023-04-22T16:15:41.609Z,22.31
2023-04-22T16:18:15.208Z,22.25
2023-04-22T16:20:47.267Z,22.33
2023-04-22T16:23:19.791Z,22.31
2023-04-22T16:25:52.063Z,22.24
2023-04-22T16:28:24.069Z,22.25
2023-04-22T16:30:56.139Z,22.26
2023-04-22T16:33:29.056Z,22.26
2023-04-22T16:36:01.083Z,22.28
2023-04-22T16:38:34.089Z,22.24
2023-04-22T16:41:06.834Z,22.29
2023-04-22T16:43:41.082Z,22.33
2023-04-22T16:46:13.925Z,22.34
2023-04-22T16:48:46.428Z,22.31
2023-04-22T16:51:18.622Z,22.42
2023-04-22T16:53:50.680Z,22.38
2023-04-22T16:56:24.064Z,22.48
2023-04-22T16:58:56.360Z,22.49
2023-04-22T17:01:30.126Z,22.52
2023-04-22T17:04:02.530Z,22.50
2023-04-22T17:06:35.708Z,22.43
2023-04-22T17:09:10.331Z,22.39
2023-04-22T17:11:42.732Z,22.30
2023-04-22T17:14:15.340Z,22.25
2023-04-22T17:16:47.595Z,22.21
2023-04-22T17:19:19.786Z,22.17
2023-04-22T17:21:52.019Z,22.12
2023-04-22T17:24:25.013Z,22.09
2023-04-22T17:26:57.490Z,22.05
2023-04-22T17:29:29.700Z,22.01
2023-04-22T17:32:02.037Z,21.94
2023-04-22T17:34:34.312Z,22.01
2023-04-22T17:37:06.439Z,21.94
2023-04-22T17:39:40.184Z,21.82
2023-04-22T17:42:12.743Z,21.72
2023-04-22T17:44:45.416Z,21.60
2023-04-22T17:47:17.409Z,21.49
2023-04-22T17:49:49.742Z,21.35
2023-04-22T17:52:22.318Z,21.22
2023-04-22T17:54:54.755Z,21.10
2023-04-22T17:57:28.361Z,20.97
2023-04-22T18:00:00.733Z,20.82
2023-04-22T18:02:33.188Z,20.69
2023-04-22T18:05:06.268Z,20.59
2023-04-22T18:07:38.482Z,20.47
2023-04-22T18:10:13.082Z,20.37
2023-04-22T18:12:46.750Z,20.21
2023-04-22T18:15:20.825Z,20.18
2023-04-22T18:17:53.991Z,20.01
2023-04-22T18:20:26.518Z,19.94
2023-04-22T18:22:59.284Z,19.93
2023-04-22T18:25:31.654Z,19.85
2023-04-22T18:28:03.961Z,19.71
2023-04-22T18:30:36.086Z,19.69
2023-04-22T18:33:09.030Z,19.62
2023-04-22T18:35:42.137Z,19.53
2023-04-22T18:38:14.228Z,19.44
2023-04-22T18:40:46.737Z,19.36
2023-04-22T18:43:19.143Z,19.26
2023-04-22T18:45:51.848Z,19.17
2023-04-22T18:48:24.208Z,19.08
2023-04-22T18:50:56.745Z,19.00
2023-04-22T18:53:29.234Z,18.92
2023-04-22T18:56:01.490Z,18.84
2023-04-22T18:58:33.785Z,18.75
2023-04-22T19:01:06.556Z,18.66
2023-04-22T19:03:39.058Z,18.57
2023-04-22T19:06:12.453Z,18.48
2023-04-22T19:08:44.668Z,18.39
2023-04-22T19:11:17.180Z,18.15
2023-04-22T19:13:51.086Z,18.19
2023-04-22T19:16:26.367Z,18.11
2023-04-22T19:18:59.082Z,18.02
2023-04-22T19:21:31.555Z,17.89
2023-04-22T19:24:04.034Z,17.83
2023-04-22T19:26:36.393Z,17.84
2023-04-22T19:29:08.770Z,17.77
2023-04-22T19:31:41.021Z,17.72
2023-04-22T19:34:13.934Z,17.65
2023-04-22T19:36:46.650Z,17.59
2023-04-22T19:39:19.103Z,17.54
2023-04-22T19:41:51.611Z,17.48
2023-04-22T19:44:24.724Z,17.39
2023-04-22T19:46:57.367Z,17.38
2023-04-22T19:49:32.818Z,17.34
2023-04-22T19:52:09.118Z,17.28
2023-04-22T19:54:47.138Z,17.22
2023-04-22T19:57:20.609Z,17.16
2023-04-22T19:59:54.149Z,17.11
2023-04-22T20:02:28.571Z,17.06
2023-04-22T20:05:02.093Z,17.00
2023-04-22T20:07:35.003Z,16.95
2023-04-22T20:10:10.001Z,16.89
2023-04-22T20:12:42.975Z,16.88
2023-04-22T20:15:16.594Z,16.85
2023-04-22T20:17:50.242Z,16.82
2023-04-22T20:20:23.993Z,16.77
2023-04-22T20:22:58.952Z,16.74
2023-04-22T20:25:32.392Z,16.70
2023-04-22T20:28:05.134Z,16.67
2023-04-22T20:30:40.407Z,16.64
2023-04-22T20:33:15.870Z,16.62
2023-04-22T20:35:51.273Z,16.58
2023-04-22T20:38:25.999Z,16.52
2023-04-22T20:40:59.231Z,16.40
2023-04-22T20:43:31.709Z,16.42
2023-04-22T20:46:04.408Z,16.36
2023-04-22T20:48:37.020Z,16.24
2023-04-22T20:51:09.583Z,16.25
2023-04-22T20:53:43.026Z,16.19
2023-04-22T20:56:15.606Z,16.15
2023-04-22T20:58:48.379Z,16.07
2023-04-22T21:01:20.858Z,16.04
2023-04-22T21:03:57.796Z,15.99
2023-04-22T21:06:34.060Z,15.92
2023-04-22T21:09:07.717Z,15.89
2023-04-22T21:11:41.083Z,15.83
2023-04-22T21:14:14.291Z,15.78
2023-04-22T21:16:50.856Z,15.78
2023-04-22T21:19:23.730Z,15.74
2023-04-22T21:21:59.574Z,15.72
2023-04-22T21:24:32.257Z,15.63
2023-04-22T21:27:05.911Z,15.67
2023-04-22T21:29:40.091Z,15.68
2023-04-22T21:32:12.453Z,15.70
2023-04-22T21:34:45.328Z,15.67
2023-04-22T21:37:18.392Z,15.67
2023-04-22T21:39:50.783Z,15.59
2023-04-22T21:42:23.164Z,15.66
2023-04-22T21:44:56.279Z,15.65
2023-04-22T21:47:29.070Z,15.62
2023-04-22T21:50:01.749Z,15.60
2023-04-22T21:52:34.184Z,15.58
2023-04-22T21:55:07.815Z,15.55
2023-04-22T21:57:41.140Z,15.53
2023-04-22T22:00:17.474Z,15.50
2023-04-22T22:02:50.511Z,15.49
2023-04-22T22:05:23.161Z,15.46
2023-04-22T22:07:56.878Z,15.45
2023-04-22T22:10:29.513Z,15.43
2023-04-22T22:13:02.519Z,15.43
2023-04-22T22:15:34.980Z,15.41
2023-04-22T22:18:07.928Z,15.39
2023-04-22T22:20:40.313Z,15.37
2023-04-22T22:23:12.836Z,15.29
2023-04-22T22:25:45.360Z,15.34
2023-04-22T22:28:18.097Z,15.33
2023-04-22T22:30:50.215Z,15.25
2023-04-22T22:33:22.585Z,15.29
2023-04-22T22:35:55.445Z,15.23
2023-04-22T22:38:28.405Z,15.21
2023-04-22T22:41:00.973Z,15.11
2023-04-22T22:43:33.217Z,15.15
2023-04-22T22:46:06.022Z,15.11
2023-04-22T22:48:38.681Z,15.08
2023-04-22T22:51:15.438Z,15.03
2023-04-22T22:53:50.215Z,14.99
2023-04-22T22:56:22.604Z,14.89
2023-04-22T22:58:55.199Z,14.92
2023-04-22T23:01:27.338Z,14.85
2023-04-22T23:03:59.848Z,14.85
2023-04-22T23:06:32.975Z,14.83
2023-04-22T23:09:05.248Z,14.81
2023-04-22T23:11:37.547Z,14.77
2023-04-22T23:14:10.696Z,14.73
2023-04-22T23:16:42.922Z,14.65
2023-04-22T23:19:18.161Z,14.71
2023-04-22T23:21:51.474Z,14.59
2023-04-22T23:24:25.490Z,14.67
2023-04-22T23:26:58.695Z,14.63
2023-04-22T23:29:32.082Z,14.62
2023-04-22T23:32:09.178Z,14.60
2023-04-22T23:34:45.847Z,14.57
2023-04-22T23:37:20.093Z,14.53
2023-04-22T23:39:52.192Z,14.51
2023-04-22T23:42:24.368Z,14.49
2023-04-22T23:44:56.778Z,14.48
2023-04-22T23:47:29.239Z,14.44
2023-04-22T23:50:01.824Z,14.34
2023-04-22T23:52:37.763Z,14.39
2023-04-22T23:55:13.050Z,14.37
2023-04-22T23:57:46.269Z,14.36
